Moa, Cuba
Current Conditions -  °F | °C
As of 3:56 AM on Wednesday 22 Oct 2014 (Local Time) from MUGM Reporting Station
Scattered Clouds Scattered Clouds  
Wind Chill: 76°   Ceiling: Unl
Heat Index: 76°   Visibility: 6mi
Dew Point: 75°   Wind: 7mph
Humidity: 97%   Direction: 340°NNW
Pressure: 29.9"   Gusts: NA
Location:  20.66°N, 74.92°W
Report Text: MUGM 220756Z 34006KT 9999 FEW028 SCT280 24/24 A2990 RMK SLP124 T02440239
Loading
Personal Weather Stations






























Interactive Weather Map
Tropical Storm Tracking
New forecast layout! Learn more

10-Day Weather Forecast

Advertisements
Track Severe Weather on mobile